createdAt,value
2023-01-31T00:48:22.853Z,2.10
2023-01-31T00:51:08.724Z,2.63
2023-01-31T00:53:54.990Z,2.23
2023-01-31T00:56:40.597Z,2.47
2023-01-31T00:59:25.967Z,2.42
2023-01-31T01:46:38.427Z,1.98
2023-01-31T01:49:36.402Z,2.00
2023-01-31T01:52:24.269Z,2.00
2023-01-31T01:55:19.709Z,1.93
2023-01-31T01:58:14.916Z,1.90
2023-01-31T02:46:51.774Z,2.33
2023-01-31T02:49:47.068Z,2.42
2023-01-31T02:52:53.030Z,1.70
2023-01-31T02:56:05.914Z,1.77
2023-01-31T02:59:22.024Z,1.77
2023-01-31T03:46:29.587Z,2.05
2023-01-31T03:49:17.792Z,2.15
2023-01-31T03:52:07.313Z,1.45
2023-01-31T03:55:02.717Z,1.58
2023-01-31T03:57:52.728Z,2.20
2023-01-31T04:49:45.283Z,1.50
2023-01-31T04:52:30.470Z,1.63
2023-01-31T04:55:15.718Z,1.60
2023-01-31T04:58:01.042Z,1.80
2023-01-31T05:48:08.658Z,1.17
2023-01-31T05:50:54.378Z,1.20
2023-01-31T05:53:40.433Z,1.75
2023-01-31T05:56:25.938Z,1.45
2023-01-31T05:59:11.314Z,1.60
2023-01-31T06:01:56.607Z,1.40
2023-01-31T06:04:42.202Z,1.77
2023-01-31T06:07:27.386Z,1.58
2023-01-31T06:10:13.625Z,1.35
2023-01-31T06:12:58.974Z,1.40
2023-01-31T06:15:45.257Z,1.70
2023-01-31T06:18:31.065Z,1.30
2023-01-31T06:21:16.454Z,1.20
2023-01-31T06:24:02.152Z,1.48
2023-01-31T06:26:47.454Z,1.20
2023-01-31T06:29:32.953Z,1.20
2023-01-31T06:32:18.316Z,1.30
2023-01-31T06:35:04.472Z,1.30
2023-01-31T06:37:49.563Z,1.67
2023-01-31T06:40:36.666Z,1.48
2023-01-31T06:43:22.271Z,1.40
2023-01-31T06:46:07.899Z,1.35
2023-01-31T06:48:53.229Z,1.42
2023-01-31T06:51:38.710Z,1.27
2023-01-31T06:54:24.017Z,1.00
2023-01-31T06:57:09.368Z,1.33
2023-01-31T06:59:55.003Z,1.10
2023-01-31T07:02:40.396Z,1.80
2023-01-31T07:05:26.014Z,1.40
2023-01-31T07:08:11.321Z,1.58
2023-01-31T07:10:57.276Z,1.50
2023-01-31T07:13:42.565Z,1.40
2023-01-31T07:16:27.857Z,1.52
2023-01-31T07:19:13.173Z,1.48
2023-01-31T07:21:58.516Z,1.40
2023-01-31T07:24:43.933Z,1.30
2023-01-31T07:27:29.171Z,1.60
2023-01-31T07:30:14.639Z,1.73
2023-01-31T07:33:00.831Z,1.90
2023-01-31T07:35:46.385Z,1.70
2023-01-31T07:38:33.030Z,1.60
2023-01-31T07:41:18.554Z,1.67
2023-01-31T07:44:03.817Z,1.30
2023-01-31T07:46:49.040Z,3.63
2023-01-31T07:49:34.132Z,1.90
2023-01-31T07:52:19.289Z,1.43
2023-01-31T07:55:05.108Z,1.20
2023-01-31T07:57:50.184Z,1.50
2023-01-31T08:00:54.234Z,1.50
2023-01-31T08:03:39.295Z,1.60
2023-01-31T08:06:24.487Z,1.40
2023-01-31T08:09:10.203Z,1.50
2023-01-31T08:11:56.112Z,1.55
2023-01-31T08:14:41.262Z,1.80
2023-01-31T08:17:26.394Z,1.58
2023-01-31T08:20:12.507Z,1.80
2023-01-31T08:23:00.428Z,1.02
2023-01-31T08:25:46.410Z,1.50
2023-01-31T08:28:32.701Z,1.58
2023-01-31T08:31:21.408Z,1.42
2023-01-31T08:34:07.906Z,1.43
2023-01-31T08:36:53.363Z,1.52
2023-01-31T08:39:39.024Z,1.63
2023-01-31T08:42:24.555Z,1.50
2023-01-31T08:45:10.258Z,1.40
2023-01-31T08:47:59.896Z,1.60
2023-01-31T08:50:45.098Z,1.55
2023-01-31T08:53:30.465Z,1.40
2023-01-31T08:56:16.065Z,1.25
2023-01-31T08:59:01.130Z,1.60
2023-01-31T09:01:46.889Z,1.63
2023-01-31T09:04:32.436Z,1.70
2023-01-31T09:07:21.609Z,1.60
2023-01-31T09:10:07.201Z,1.75
2023-01-31T09:12:52.612Z,1.40
2023-01-31T09:15:39.112Z,1.73
2023-01-31T09:18:24.587Z,1.38
2023-01-31T09:21:13.334Z,1.35
2023-01-31T09:24:02.385Z,1.70
2023-01-31T09:26:47.782Z,1.90
2023-01-31T09:29:33.626Z,1.37
2023-01-31T09:32:20.545Z,0.90
2023-01-31T09:35:06.266Z,1.13
2023-01-31T09:37:51.246Z,1.23
2023-01-31T09:40:40.710Z,1.17
2023-01-31T09:43:30.989Z,1.50
2023-01-31T09:46:21.043Z,1.60
2023-01-31T09:49:15.044Z,1.55
2023-01-31T09:52:02.591Z,1.30
2023-01-31T09:54:48.258Z,1.50
2023-01-31T09:57:36.657Z,1.27
2023-01-31T10:00:30.510Z,1.20
2023-01-31T10:03:45.340Z,1.20
2023-01-31T10:06:47.960Z,1.23
2023-01-31T10:09:48.976Z,1.65
2023-01-31T10:12:44.437Z,1.10
2023-01-31T10:15:42.327Z,1.73
2023-01-31T10:18:34.670Z,1.75
2023-01-31T10:21:25.164Z,1.05
2023-01-31T10:24:22.156Z,1.02
2023-01-31T10:27:18.637Z,1.10
2023-01-31T10:30:08.033Z,1.27
2023-01-31T10:33:03.769Z,1.50
2023-01-31T10:35:52.608Z,1.42
2023-01-31T10:38:52.093Z,1.13
2023-01-31T10:42:02.609Z,1.27
2023-01-31T10:45:20.034Z,1.48
2023-01-31T10:48:15.943Z,1.40
2023-01-31T10:51:13.340Z,1.40
2023-01-31T10:54:04.550Z,1.20
2023-01-31T10:56:49.781Z,1.00
2023-01-31T10:59:37.786Z,1.20
2023-01-31T11:02:25.714Z,1.48
2023-01-31T11:05:17.720Z,1.70
2023-01-31T11:08:17.183Z,1.30
2023-01-31T11:11:14.421Z,1.30
2023-01-31T11:14:07.627Z,1.40
2023-01-31T11:17:00.447Z,1.80
2023-01-31T11:19:45.676Z,1.00
2023-01-31T11:22:33.033Z,1.20
2023-01-31T11:25:22.143Z,1.30
2023-01-31T11:28:21.633Z,1.10
2023-01-31T11:31:17.659Z,1.42
2023-01-31T11:34:05.787Z,1.10
2023-01-31T11:36:52.053Z,1.27
2023-01-31T11:39:40.592Z,1.30
2023-01-31T11:42:26.470Z,1.50
2023-01-31T11:45:18.870Z,1.10
2023-01-31T11:48:13.185Z,1.30
2023-01-31T11:51:01.536Z,1.65
2023-01-31T11:53:50.697Z,2.10
2023-01-31T11:56:37.819Z,2.65
2023-01-31T11:59:29.431Z,2.58
2023-01-31T12:02:37.934Z,2.25
2023-01-31T12:05:23.225Z,1.98
2023-01-31T12:08:30.606Z,1.97
2023-01-31T12:11:35.823Z,2.20
2023-01-31T12:14:21.106Z,2.38
2023-01-31T12:17:12.312Z,2.08
2023-01-31T12:20:28.104Z,2.45
2023-01-31T12:24:05.026Z,2.37
2023-01-31T12:27:27.687Z,1.95
2023-01-31T12:30:34.404Z,1.70
2023-01-31T12:33:55.310Z,1.80
2023-01-31T12:36:57.367Z,2.10
2023-01-31T12:40:25.704Z,3.03
2023-01-31T12:43:33.123Z,2.60
2023-01-31T12:46:26.396Z,1.85
2023-01-31T12:49:26.975Z,2.20
2023-01-31T12:52:37.111Z,2.35
2023-01-31T12:55:34.547Z,1.50
2023-01-31T12:58:19.778Z,2.17
2023-01-31T13:01:11.800Z,1.90
2023-01-31T13:04:25.511Z,2.03
2023-01-31T13:07:46.104Z,2.00
2023-01-31T13:11:03.586Z,2.00
2023-01-31T13:13:57.799Z,2.05
2023-01-31T13:16:46.528Z,1.90
2023-01-31T13:19:50.560Z,1.60
2023-01-31T13:22:47.017Z,2.30
2023-01-31T13:25:42.322Z,1.77
2023-01-31T13:28:40.769Z,2.15
2023-01-31T13:31:39.428Z,2.00
2023-01-31T13:34:27.927Z,2.15
2023-01-31T13:37:20.837Z,2.17
2023-01-31T13:40:23.282Z,1.97
2023-01-31T13:43:15.577Z,2.35
2023-01-31T13:46:08.116Z,2.05
2023-01-31T13:49:03.795Z,1.70
2023-01-31T13:51:57.309Z,2.08
2023-01-31T13:54:49.051Z,1.83
2023-01-31T13:57:49.263Z,1.75
2023-01-31T14:00:45.530Z,2.17
2023-01-31T14:03:31.264Z,1.80
2023-01-31T14:06:17.015Z,1.63
2023-01-31T14:09:02.321Z,1.60
2023-01-31T14:11:47.758Z,1.98
2023-01-31T14:14:39.335Z,1.70
2023-01-31T14:17:27.402Z,1.77
2023-01-31T14:20:33.020Z,1.80
2023-01-31T14:23:31.057Z,1.73
2023-01-31T14:26:52.293Z,1.70
2023-01-31T14:29:42.771Z,1.73
2023-01-31T14:32:36.371Z,1.67
2023-01-31T14:35:32.202Z,1.55
2023-01-31T14:38:43.046Z,1.40
2023-01-31T14:41:47.879Z,1.90
2023-01-31T14:45:10.669Z,2.00
2023-01-31T14:47:55.591Z,1.80
2023-01-31T14:50:52.578Z,1.67
2023-01-31T14:53:54.337Z,1.60
2023-01-31T14:56:57.786Z,1.50
2023-01-31T15:00:00.372Z,1.70
2023-01-31T15:03:08.523Z,1.80
2023-01-31T15:06:16.138Z,1.70
2023-01-31T15:09:30.576Z,1.50
2023-01-31T15:12:54.742Z,1.50
2023-01-31T15:15:40.513Z,1.67
2023-01-31T15:18:28.705Z,1.75
2023-01-31T15:21:21.599Z,1.58
2023-01-31T15:24:24.421Z,1.33
2023-01-31T15:27:17.156Z,1.48
2023-01-31T15:30:09.346Z,1.45
2023-01-31T15:33:18.922Z,1.50
2023-01-31T15:36:21.138Z,1.15
2023-01-31T15:39:19.666Z,1.47
2023-01-31T15:42:24.159Z,1.40
2023-01-31T15:45:25.604Z,1.27
2023-01-31T15:48:16.614Z,1.77
2023-01-31T15:51:02.148Z,1.60
2023-01-31T15:53:48.165Z,1.50
2023-01-31T15:56:37.858Z,1.13
2023-01-31T15:59:27.169Z,1.55
2023-01-31T16:02:33.352Z,1.38
2023-01-31T16:05:22.526Z,1.50
2023-01-31T16:08:28.657Z,1.20
2023-01-31T16:11:13.885Z,1.77
2023-01-31T16:14:05.228Z,1.30
2023-01-31T16:16:53.147Z,1.52
2023-01-31T16:19:38.386Z,1.63
2023-01-31T16:22:29.737Z,1.20
2023-01-31T16:25:19.000Z,1.60
2023-01-31T16:28:07.394Z,1.40
2023-01-31T16:30:52.595Z,1.20
2023-01-31T16:33:39.966Z,1.25
2023-01-31T16:36:29.070Z,1.47
2023-01-31T16:39:37.956Z,1.15
2023-01-31T16:42:25.968Z,1.20
2023-01-31T16:45:33.002Z,1.30
2023-01-31T16:48:32.888Z,1.25
2023-01-31T16:51:31.236Z,1.10
2023-01-31T16:54:16.396Z,1.17
2023-01-31T16:57:01.715Z,1.35
2023-01-31T16:59:52.184Z,1.15
2023-01-31T17:02:42.211Z,1.10
2023-01-31T17:05:41.056Z,1.30
2023-01-31T17:08:26.154Z,1.23
2023-01-31T17:11:19.650Z,1.00
2023-01-31T17:14:08.897Z,1.35
2023-01-31T17:16:54.362Z,1.45
2023-01-31T17:19:39.585Z,1.20
2023-01-31T17:22:24.923Z,1.20
2023-01-31T17:25:19.786Z,1.25
2023-01-31T17:28:06.130Z,1.20
2023-01-31T17:30:51.655Z,1.23
2023-01-31T17:33:36.977Z,1.30
2023-01-31T17:36:22.664Z,1.08
2023-01-31T17:39:07.875Z,1.23
2023-01-31T17:41:53.295Z,1.17
2023-01-31T17:44:38.588Z,1.33
2023-01-31T17:47:25.189Z,1.20
2023-01-31T17:50:22.824Z,1.10
2023-01-31T17:53:07.765Z,1.05
2023-01-31T17:55:52.820Z,1.33
2023-01-31T17:58:38.197Z,1.00
2023-01-31T18:01:23.826Z,1.50
2023-01-31T18:04:09.054Z,1.30
2023-01-31T18:06:54.816Z,1.13
2023-01-31T18:09:39.894Z,1.00
2023-01-31T18:12:25.294Z,1.13
2023-01-31T18:15:11.069Z,1.20
2023-01-31T18:17:55.992Z,1.10
2023-01-31T18:20:47.970Z,1.17
2023-01-31T18:23:33.429Z,1.10
2023-01-31T18:26:19.257Z,1.00
2023-01-31T18:29:04.388Z,1.07
2023-01-31T18:31:50.059Z,1.40
2023-01-31T18:34:37.002Z,1.20
2023-01-31T18:37:22.377Z,1.10
2023-01-31T18:40:08.591Z,1.20
2023-01-31T18:42:53.878Z,0.80
2023-01-31T18:45:39.163Z,1.30
2023-01-31T18:48:24.379Z,0.90
2023-01-31T18:51:12.157Z,1.30
2023-01-31T18:53:58.777Z,1.20
2023-01-31T18:56:44.778Z,1.10
2023-01-31T18:59:30.061Z,0.88
2023-01-31T19:02:15.272Z,1.38
2023-01-31T19:05:01.739Z,1.10
2023-01-31T19:07:48.464Z,1.20
2023-01-31T19:10:33.919Z,1.40
2023-01-31T19:13:19.314Z,1.50
2023-01-31T19:16:14.302Z,1.55
2023-01-31T19:18:59.906Z,1.85
2023-01-31T19:21:45.035Z,1.90
2023-01-31T19:24:30.277Z,2.20
2023-01-31T19:27:15.258Z,1.80
2023-01-31T19:30:01.142Z,1.67
2023-01-31T19:32:46.814Z,1.80
2023-01-31T19:35:32.679Z,1.58
2023-01-31T19:38:17.910Z,1.70
2023-01-31T19:41:07.468Z,1.85
2023-01-31T19:43:55.262Z,2.28
2023-01-31T19:46:40.152Z,1.83
2023-01-31T19:49:25.416Z,1.60
2023-01-31T19:52:10.653Z,2.27
2023-01-31T19:54:55.997Z,1.92
2023-01-31T19:57:41.328Z,1.75
2023-01-31T20:00:26.578Z,1.88
2023-01-31T20:03:11.886Z,1.73
2023-01-31T20:06:09.186Z,2.33
2023-01-31T20:08:56.563Z,1.80
2023-01-31T20:11:41.803Z,2.00
2023-01-31T20:14:28.759Z,2.03
2023-01-31T20:17:14.008Z,1.73
2023-01-31T20:20:01.387Z,1.40
2023-01-31T20:22:46.753Z,1.83
2023-01-31T20:25:33.063Z,1.70
2023-01-31T20:28:20.102Z,1.67
2023-01-31T20:31:10.414Z,1.50
2023-01-31T20:33:56.074Z,1.33
2023-01-31T20:36:41.201Z,1.48
2023-01-31T20:39:26.620Z,1.58
2023-01-31T20:42:12.033Z,1.58
2023-01-31T20:44:57.289Z,1.50
2023-01-31T20:47:42.615Z,1.50
2023-01-31T20:50:30.056Z,1.50
2023-01-31T20:53:18.739Z,1.33
2023-01-31T20:56:07.489Z,1.42
2023-01-31T20:58:52.692Z,1.40
2023-01-31T21:01:38.130Z,1.40
2023-01-31T21:04:23.424Z,1.30
2023-01-31T21:07:08.692Z,1.45
2023-01-31T21:09:55.077Z,1.33
2023-01-31T21:12:40.431Z,1.38
2023-01-31T21:15:27.809Z,1.43
2023-01-31T21:18:14.351Z,1.38
2023-01-31T21:21:03.785Z,1.40
2023-01-31T21:23:51.994Z,1.40
2023-01-31T21:26:37.383Z,1.25
2023-01-31T21:29:22.734Z,1.50
2023-01-31T21:32:07.952Z,1.30
2023-01-31T21:34:53.360Z,1.40
2023-01-31T21:37:38.530Z,1.30
2023-01-31T21:40:24.071Z,1.35
2023-01-31T21:43:09.314Z,1.20
2023-01-31T21:45:55.991Z,1.20
2023-01-31T21:48:42.102Z,1.10
2023-01-31T21:51:28.255Z,1.60
2023-01-31T21:54:13.304Z,1.20
2023-01-31T21:56:59.273Z,1.30
2023-01-31T21:59:46.743Z,1.10
2023-01-31T22:02:32.141Z,1.00
2023-01-31T22:05:17.574Z,1.40
2023-01-31T22:08:02.919Z,2.55
2023-01-31T22:10:48.304Z,2.33
2023-01-31T22:13:34.299Z,2.22
2023-01-31T22:16:21.441Z,2.20
2023-01-31T22:19:07.657Z,1.77
2023-01-31T22:21:52.990Z,1.70
2023-01-31T22:24:38.407Z,1.67
2023-01-31T22:27:23.599Z,1.95
2023-01-31T22:30:16.113Z,1.77
2023-01-31T22:33:13.026Z,1.80
2023-01-31T22:35:58.526Z,1.38
2023-01-31T22:38:45.824Z,1.77
2023-01-31T22:41:31.793Z,1.42
2023-01-31T22:44:17.146Z,1.95
2023-01-31T22:47:02.955Z,1.92
2023-01-31T22:49:48.077Z,1.65
2023-01-31T22:52:33.572Z,2.27
2023-01-31T22:55:19.592Z,1.88
2023-01-31T22:58:05.812Z,1.73
2023-01-31T23:00:51.044Z,1.58
2023-01-31T23:03:36.305Z,1.50
2023-01-31T23:06:21.938Z,1.70
2023-01-31T23:09:07.417Z,1.60
2023-01-31T23:11:52.639Z,1.88
2023-01-31T23:14:37.962Z,1.48
2023-01-31T23:17:38.331Z,1.92
2023-01-31T23:20:23.680Z,1.30
2023-01-31T23:23:09.119Z,1.50
2023-01-31T23:25:54.652Z,1.40
2023-01-31T23:28:40.226Z,1.48
